Laguna — WDF4470 — position and weather

sailwx.info

Track history (hours):
 
Tides and Currents Weather Stations Pressure Air Temp Water Temp Dewpoint Dewpoint Depression Visibility Wind Speed Wind Dir Waves Ship Positions

Laguna

Owner: GP RESOURCES INC., TERMINAL ISLAND, CA. More information available from US FCC via Universal Licensing System and Coast Guard Vessel Documentation Center.

Last reported at 2018-Jun-23 23:38 UTC. Time now 2018-Jun-25 00:29 UTC.
Position N 33°44' W 118°16'.

Length 15 m; draft 2.5 m.

MMSI: 367452280.

Date/timePositionNaut miles runAvg speedWind from/ knotsBaromVisibWave heightAir tempDewpointWater temp
2018-Jun-23 23:38N 33°44' W 118°16'0 0.0
2018-Jun-23 23:30N 33°44' W 118°16'0 0.6
2018-Jun-23 23:00N 33°44' W 118°16'0 0.0
2018-Jun-23 22:30N 33°44' W 118°16'0 0.0
2018-Jun-23 22:00N 33°44' W 118°16'0 0.0
2018-Jun-23 21:30N 33°44' W 118°16'0 0.0
2018-Jun-23 21:00N 33°44' W 118°16'0 0.0
2018-Jun-23 20:30N 33°44' W 118°16'0 0.0
2018-Jun-23 20:00N 33°44' W 118°16'0 0.0
2018-Jun-23 19:30N 33°44' W 118°16'0 0.0
2018-Jun-23 19:00N 33°44' W 118°16'1 1.6
2018-Jun-23 18:30N 33°43' W 118°16'1 0.0
2018-Jun-22 19:37N 33°44' W 118°16'0 0.0
2018-Jun-22 19:30N 33°44' W 118°16'0 0.2
2018-Jun-22 19:00N 33°44' W 118°16'0 0.1
2018-Jun-22 18:30N 33°44' W 118°16'0 0.0
2018-Jun-22 18:00N 33°44' W 118°16'0 0.0
2018-Jun-22 17:30N 33°44' W 118°16'0 0.0
2018-Jun-22 17:00N 33°44' W 118°16'0 0.0
2018-Jun-22 16:30N 33°44' W 118°16'0 0.0
2018-Jun-22 16:00N 33°44' W 118°16'0 0.0
2018-Jun-22 15:30N 33°44' W 118°16'0 0.0
2018-Jun-22 15:00N 33°44' W 118°16'0 0.0
2018-Jun-22 14:30N 33°44' W 118°16'0 0.0
2018-Jun-20 18:30N 33°44' W 118°16'0 0.0
2018-Jun-20 18:01N 33°44' W 118°16'0 0.0
2018-Jun-20 17:31N 33°44' W 118°16'0 0.0
2018-Jun-19 18:18N 33°44' W 118°16'1 2.3
2018-Jun-19 18:00N 33°44' W 118°16'2 3.7
2018-Jun-19 17:30N 33°45' W 118°16'1 3.0
2018-Jun-19 17:00N 33°47' W 118°15'0 0.0
2018-Jun-19 16:30N 33°47' W 118°15'0 0.0
2018-Jun-19 16:00N 33°47' W 118°15'0 0.0
2018-Jun-19 15:30N 33°47' W 118°15'1 1.1
2018-Jun-19 15:00N 33°46' W 118°15'3 5.4
2018-Jun-19 14:30N 33°44' W 118°16'0 0.9
2018-Jun-19 14:00N 33°44' W 118°16'0 0.0
2018-Jun-19 13:30N 33°44' W 118°16'0 0.0
2018-Jun-19 13:00N 33°44' W 118°16'0 0.0
2018-Jun-19 12:30N 33°44' W 118°16'0 0.0
2018-Jun-19 12:00N 33°44' W 118°16'0 0.0
2018-Jun-19 11:30N 33°44' W 118°16'0 0.0
2018-Jun-19 11:00N 33°44' W 118°16'0 0.0
2018-Jun-19 10:30N 33°44' W 118°16'0 0.0
2018-Jun-19 10:00N 33°44' W 118°16'0 0.0
2018-Jun-19 09:30N 33°44' W 118°16'0 0.0
2018-Jun-19 09:00N 33°44' W 118°16'0 0.0
2018-Jun-19 08:30N 33°44' W 118°16'0 0.2
2018-Jun-19 08:00N 33°44' W 118°16'1 1.4
2018-Jun-19 07:29N 33°45' W 118°17'1 3.0
2018-Jun-19 07:00N 33°46' W 118°16'0 0.0
2018-Jun-19 06:30N 33°46' W 118°16'0 0.0
2018-Jun-19 06:00N 33°46' W 118°16'0 0.0
2018-Jun-19 05:30N 33°46' W 118°16'1 1.0
2018-Jun-19 05:00N 33°45' W 118°17'2 3.8
2018-Jun-19 04:29N 33°44' W 118°16'1 0.0
2018-Jun-18 15:50N 33°44' W 118°16'1 2.8
2018-Jun-18 15:30N 33°43' W 118°16'2 4.6
2018-Jun-18 15:00N 33°45' W 118°16'2 3.2
2018-Jun-18 14:30N 33°44' W 118°16'0 0.6
2018-Jun-18 14:00N 33°44' W 118°16'0 0.0
2018-Jun-16 21:58N 33°44' W 118°16'1 2.0
2018-Jun-16 21:29N 33°43' W 118°16'1 2.0
2018-Jun-16 21:00N 33°44' W 118°16'0 0.0
2018-Jun-16 20:30N 33°44' W 118°16'0 0.0
2018-Jun-16 20:00N 33°44' W 118°16'0 0.0
2018-Jun-16 19:29N 33°44' W 118°16'0 0.0
2018-Jun-16 19:00N 33°44' W 118°16'0 0.0
2018-Jun-16 18:30N 33°44' W 118°16'0 0.0
2018-Jun-16 18:00N 33°44' W 118°16'0 0.0
2018-Jun-16 17:30N 33°44' W 118°16'0 0.0
2018-Jun-16 16:59N 33°44' W 118°16'1 2.7
2018-Jun-16 16:30N 33°43' W 118°16'3 6.8
2018-Jun-16 16:00N 33°40' W 118°13'3 6.7
2018-Jun-16 15:30N 33°38' W 118°10'3 6.6
2018-Jun-16 15:00N 33°36' W 118°07'3 6.9
2018-Jun-16 14:30N 33°33' W 118°05'27 7.1
2018-Jun-16 10:46N 33°11' W 117°46'2 7.0
2018-Jun-16 10:30N 33°10' W 117°45'4 7.1
2018-Jun-16 10:00N 33°07' W 117°43'3 7.0
2018-Jun-16 09:30N 33°04' W 117°40'3 7.0
2018-Jun-16 09:00N 33°01' W 117°37'3 6.9
2018-Jun-16 08:30N 32°59' W 117°35'3 6.7
2018-Jun-16 07:59N 32°56' W 117°32'3 6.7
2018-Jun-16 07:30N 32°53' W 117°30'3 6.5
2018-Jun-16 07:00N 32°51' W 117°28'3 6.7
2018-Jun-16 06:30N 32°48' W 117°25'4 6.9
2018-Jun-16 05:59N 32°45' W 117°23'3 6.9
2018-Jun-16 05:30N 32°43' W 117°20'3 0.1
2018-Jun-15 07:32N 32°45' W 117°22'0 5.9
2018-Jun-15 07:30N 32°45' W 117°22'3 5.7
2018-Jun-15 07:00N 32°47' W 117°25'3 5.9
2018-Jun-15 06:31N 32°50' W 117°27'3 6.2
2018-Jun-15 06:00N 32°52' W 117°29'3 6.2
2018-Jun-15 05:30N 32°54' W 117°32'3 6.3
2018-Jun-15 05:00N 32°57' W 117°34'3 6.4
2018-Jun-15 04:30N 32°60' W 117°36'3 6.3
2018-Jun-15 04:00N 33°02' W 117°38'3 6.4
2018-Jun-15 03:30N 33°05' W 117°40'3 6.5
2018-Jun-15 03:01N 33°08' W 117°42'3 6.3
2018-Jun-15 02:30N 33°10' W 117°45'3 6.3
2018-Jun-15 02:00N 33°13' W 117°47'3 6.2
2018-Jun-15 01:30N 33°15' W 117°49'5 6.3
2018-Jun-15 00:39N 33°20' W 117°53'1 6.3
2018-Jun-15 00:30N 33°20' W 117°54'3 6.2
2018-Jun-15 00:00N 33°23' W 117°56'4 6.4
2018-Jun-14 23:25N 33°26' W 117°58'3 6.5
2018-Jun-14 23:00N 33°28' W 118°00'3 6.6
2018-Jun-14 22:30N 33°31' W 118°03'3 6.7
2018-Jun-14 22:00N 33°33' W 118°05'3 6.6
2018-Jun-14 21:30N 33°36' W 118°08'3 6.5
2018-Jun-14 21:00N 33°38' W 118°10'3 6.4
2018-Jun-14 20:30N 33°40' W 118°13'3 5.5
2018-Jun-14 20:00N 33°43' W 118°15'2 3.4
2018-Jun-14 19:30N 33°44' W 118°16'0 0.0
2018-Jun-14 11:12N 33°44' W 118°16'0 0.1
2018-Jun-14 11:00N 33°44' W 118°16'0 0.0
2018-Jun-14 10:30N 33°44' W 118°16'0 0.0
2018-Jun-14 10:00N 33°44' W 118°16'0 0.0
2018-Jun-14 09:30N 33°44' W 118°16'2 4.3
2018-Jun-14 09:00N 33°43' W 118°14'3 5.8
2018-Jun-14 08:30N 33°44' W 118°10'0 0.7
2018-Jun-14 08:00N 33°44' W 118°10'0 0.0
2018-Jun-14 07:30N 33°44' W 118°10'0 0.0
2018-Jun-14 07:00N 33°44' W 118°10'0 0.0
2018-Jun-14 06:30N 33°44' W 118°10'0 0.1
2018-Jun-14 06:00N 33°44' W 118°10'0 0.2
2018-Jun-14 05:30N 33°44' W 118°10'0 0.1
2018-Jun-14 05:00N 33°44' W 118°10'0 0.0
2018-Jun-14 04:30N 33°44' W 118°10'1 2.5
2018-Jun-14 04:00N 33°44' W 118°12'3 6.1
2018-Jun-14 03:30N 33°43' W 118°15'  
Track history (hours):
 
Tides and Currents Weather Stations Pressure Air Temp Water Temp Dewpoint Dewpoint Depression Visibility Wind Speed Wind Dir Waves Ship Positions

Laguna

Owner: GP RESOURCES INC., TERMINAL ISLAND, CA. More information available from US FCC via Universal Licensing System and Coast Guard Vessel Documentation Center.

Last reported at 2018-Jun-23 23:38 UTC. Time now 2018-Jun-25 00:29 UTC.
Position N 33°44' W 118°16'.

Length 15 m; draft 2.5 m.

MMSI: 367452280.

Date/timePositionNaut miles runAvg speedWind from/ knotsBaromVisibWave heightAir tempDewpointWater temp
2018-Jun-23 23:38N 33°44' W 118°16'0 0.0
2018-Jun-23 23:30N 33°44' W 118°16'0 0.6
2018-Jun-23 23:00N 33°44' W 118°16'0 0.0
2018-Jun-23 22:30N 33°44' W 118°16'0 0.0
2018-Jun-23 22:00N 33°44' W 118°16'0 0.0
2018-Jun-23 21:30N 33°44' W 118°16'0 0.0
2018-Jun-23 21:00N 33°44' W 118°16'0 0.0
2018-Jun-23 20:30N 33°44' W 118°16'0 0.0
2018-Jun-23 20:00N 33°44' W 118°16'0 0.0
2018-Jun-23 19:30N 33°44' W 118°16'0 0.0
2018-Jun-23 19:00N 33°44' W 118°16'1 1.6
2018-Jun-23 18:30N 33°43' W 118°16'1 0.0
2018-Jun-22 19:37N 33°44' W 118°16'0 0.0
2018-Jun-22 19:30N 33°44' W 118°16'0 0.2
2018-Jun-22 19:00N 33°44' W 118°16'0 0.1
2018-Jun-22 18:30N 33°44' W 118°16'0 0.0
2018-Jun-22 18:00N 33°44' W 118°16'0 0.0
2018-Jun-22 17:30N 33°44' W 118°16'0 0.0
2018-Jun-22 17:00N 33°44' W 118°16'0 0.0
2018-Jun-22 16:30N 33°44' W 118°16'0 0.0
2018-Jun-22 16:00N 33°44' W 118°16'0 0.0
2018-Jun-22 15:30N 33°44' W 118°16'0 0.0
2018-Jun-22 15:00N 33°44' W 118°16'0 0.0
2018-Jun-22 14:30N 33°44' W 118°16'0 0.0
2018-Jun-20 18:30N 33°44' W 118°16'0 0.0
2018-Jun-20 18:01N 33°44' W 118°16'0 0.0
2018-Jun-20 17:31N 33°44' W 118°16'0 0.0
2018-Jun-19 18:18N 33°44' W 118°16'1 2.3
2018-Jun-19 18:00N 33°44' W 118°16'2 3.7
2018-Jun-19 17:30N 33°45' W 118°16'1 3.0
2018-Jun-19 17:00N 33°47' W 118°15'0 0.0
2018-Jun-19 16:30N 33°47' W 118°15'0 0.0
2018-Jun-19 16:00N 33°47' W 118°15'0 0.0
2018-Jun-19 15:30N 33°47' W 118°15'1 1.1
2018-Jun-19 15:00N 33°46' W 118°15'3 5.4
2018-Jun-19 14:30N 33°44' W 118°16'0 0.9
2018-Jun-19 14:00N 33°44' W 118°16'0 0.0
2018-Jun-19 13:30N 33°44' W 118°16'0 0.0
2018-Jun-19 13:00N 33°44' W 118°16'0 0.0
2018-Jun-19 12:30N 33°44' W 118°16'0 0.0
2018-Jun-19 12:00N 33°44' W 118°16'0 0.0
2018-Jun-19 11:30N 33°44' W 118°16'0 0.0
2018-Jun-19 11:00N 33°44' W 118°16'0 0.0
2018-Jun-19 10:30N 33°44' W 118°16'0 0.0
2018-Jun-19 10:00N 33°44' W 118°16'0 0.0
2018-Jun-19 09:30N 33°44' W 118°16'0 0.0
2018-Jun-19 09:00N 33°44' W 118°16'0 0.0
2018-Jun-19 08:30N 33°44' W 118°16'0 0.2
2018-Jun-19 08:00N 33°44' W 118°16'1 1.4
2018-Jun-19 07:29N 33°45' W 118°17'1 3.0
2018-Jun-19 07:00N 33°46' W 118°16'0 0.0
2018-Jun-19 06:30N 33°46' W 118°16'0 0.0
2018-Jun-19 06:00N 33°46' W 118°16'0 0.0
2018-Jun-19 05:30N 33°46' W 118°16'1 1.0
2018-Jun-19 05:00N 33°45' W 118°17'2 3.8
2018-Jun-19 04:29N 33°44' W 118°16'1 0.0
2018-Jun-18 15:50N 33°44' W 118°16'1 2.8
2018-Jun-18 15:30N 33°43' W 118°16'2 4.6
2018-Jun-18 15:00N 33°45' W 118°16'2 3.2
2018-Jun-18 14:30N 33°44' W 118°16'0 0.6
2018-Jun-18 14:00N 33°44' W 118°16'0 0.0
2018-Jun-16 21:58N 33°44' W 118°16'1 2.0
2018-Jun-16 21:29N 33°43' W 118°16'1 2.0
2018-Jun-16 21:00N 33°44' W 118°16'0 0.0
2018-Jun-16 20:30N 33°44' W 118°16'0 0.0
2018-Jun-16 20:00N 33°44' W 118°16'0 0.0
2018-Jun-16 19:29N 33°44' W 118°16'0 0.0
2018-Jun-16 19:00N 33°44' W 118°16'0 0.0
2018-Jun-16 18:30N 33°44' W 118°16'0 0.0
2018-Jun-16 18:00N 33°44' W 118°16'0 0.0
2018-Jun-16 17:30N 33°44' W 118°16'0 0.0
2018-Jun-16 16:59N 33°44' W 118°16'1 2.7
2018-Jun-16 16:30N 33°43' W 118°16'3 6.8
2018-Jun-16 16:00N 33°40' W 118°13'3 6.7
2018-Jun-16 15:30N 33°38' W 118°10'3 6.6
2018-Jun-16 15:00N 33°36' W 118°07'3 6.9
2018-Jun-16 14:30N 33°33' W 118°05'27 7.1
2018-Jun-16 10:46N 33°11' W 117°46'2 7.0
2018-Jun-16 10:30N 33°10' W 117°45'4 7.1
2018-Jun-16 10:00N 33°07' W 117°43'3 7.0
2018-Jun-16 09:30N 33°04' W 117°40'3 7.0
2018-Jun-16 09:00N 33°01' W 117°37'3 6.9
2018-Jun-16 08:30N 32°59' W 117°35'3 6.7
2018-Jun-16 07:59N 32°56' W 117°32'3 6.7
2018-Jun-16 07:30N 32°53' W 117°30'3 6.5
2018-Jun-16 07:00N 32°51' W 117°28'3 6.7
2018-Jun-16 06:30N 32°48' W 117°25'4 6.9
2018-Jun-16 05:59N 32°45' W 117°23'3 6.9
2018-Jun-16 05:30N 32°43' W 117°20'3 0.1
2018-Jun-15 07:32N 32°45' W 117°22'0 5.9
2018-Jun-15 07:30N 32°45' W 117°22'3 5.7
2018-Jun-15 07:00N 32°47' W 117°25'3 5.9
2018-Jun-15 06:31N 32°50' W 117°27'3 6.2
2018-Jun-15 06:00N 32°52' W 117°29'3 6.2
2018-Jun-15 05:30N 32°54' W 117°32'3 6.3
2018-Jun-15 05:00N 32°57' W 117°34'3 6.4
2018-Jun-15 04:30N 32°60' W 117°36'3 6.3
2018-Jun-15 04:00N 33°02' W 117°38'3 6.4
2018-Jun-15 03:30N 33°05' W 117°40'3 6.5
2018-Jun-15 03:01N 33°08' W 117°42'3 6.3
2018-Jun-15 02:30N 33°10' W 117°45'3 6.3
2018-Jun-15 02:00N 33°13' W 117°47'3 6.2
2018-Jun-15 01:30N 33°15' W 117°49'5 6.3
2018-Jun-15 00:39N 33°20' W 117°53'1 6.3
2018-Jun-15 00:30N 33°20' W 117°54'3 6.2
2018-Jun-15 00:00N 33°23' W 117°56'4 6.4
2018-Jun-14 23:25N 33°26' W 117°58'3 6.5
2018-Jun-14 23:00N 33°28' W 118°00'3 6.6
2018-Jun-14 22:30N 33°31' W 118°03'3 6.7
2018-Jun-14 22:00N 33°33' W 118°05'3 6.6
2018-Jun-14 21:30N 33°36' W 118°08'3 6.5
2018-Jun-14 21:00N 33°38' W 118°10'3 6.4
2018-Jun-14 20:30N 33°40' W 118°13'3 5.5
2018-Jun-14 20:00N 33°43' W 118°15'2 3.4
2018-Jun-14 19:30N 33°44' W 118°16'0 0.0
2018-Jun-14 11:12N 33°44' W 118°16'0 0.1
2018-Jun-14 11:00N 33°44' W 118°16'0 0.0
2018-Jun-14 10:30N 33°44' W 118°16'0 0.0
2018-Jun-14 10:00N 33°44' W 118°16'0 0.0
2018-Jun-14 09:30N 33°44' W 118°16'2 4.3
2018-Jun-14 09:00N 33°43' W 118°14'3 5.8
2018-Jun-14 08:30N 33°44' W 118°10'0 0.7
2018-Jun-14 08:00N 33°44' W 118°10'0 0.0
2018-Jun-14 07:30N 33°44' W 118°10'0 0.0
2018-Jun-14 07:00N 33°44' W 118°10'0 0.0
2018-Jun-14 06:30N 33°44' W 118°10'0 0.1
2018-Jun-14 06:00N 33°44' W 118°10'0 0.2
2018-Jun-14 05:30N 33°44' W 118°10'0 0.1
2018-Jun-14 05:00N 33°44' W 118°10'0 0.0
2018-Jun-14 04:30N 33°44' W 118°10'1 2.5
2018-Jun-14 04:00N 33°44' W 118°12'3 6.1
2018-Jun-14 03:30N 33°43' W 118°15'  

Dump ship's entire track history